Time;durP1;ratioP1;P1;durP2;ratioP2;P2;SDS_P1;SDS_P2;PMS_P1;PMS_P2;Temp;Humidity;BMP_temperature;BMP_pressure;BME280_temperature;BME280_humidity;BME280_pressure;Samples;Min_cycle;Max_cycle;Signal;HPM_P1;HPM_P2
2023/05/12 00:00:37;;;;;;;9.17;4.00;;;;;;;;;;6310995;28;20051;-76
2023/05/12 00:03:37;;;;;;;10.53;3.77;;;;;;;;;;6280864;28;20047;-76
2023/05/12 00:06:37;;;;;;;6.75;3.95;;;;;;;;;;6297721;28;20270;-77
2023/05/12 00:09:37;;;;;;;4.88;3.42;;;;;;;;;;6312913;28;20027;-76
2023/05/12 00:12:37;;;;;;;13.90;4.93;;;;;;;;;;6312768;28;20036;-76
2023/05/12 00:15:38;;;;;;;15.02;4.35;;;;;;;;;;6309606;28;20387;-76
2023/05/12 00:18:38;;;;;;;7.10;4.40;;;;;;;;;;6301448;28;20040;-76
2023/05/12 00:21:40;;;;;;;8.75;3.78;;;;;;;;;;6298804;28;20111;-76
2023/05/12 00:24:40;;;;;;;9.98;4.00;;;;;;;;;;6295715;28;20659;-77
2023/05/12 00:27:40;;;;;;;7.73;4.17;;;;;;;;;;6294429;28;20028;-77
2023/05/12 00:30:40;;;;;;;9.50;4.50;;;;;;;;;;6301993;28;20442;-77
2023/05/12 00:33:41;;;;;;;6.65;4.18;;;;;;;;;;6309799;28;20736;-77
2023/05/12 00:36:41;;;;;;;10.40;4.57;;;;;;;;;;6277049;28;20267;-77
2023/05/12 00:39:41;;;;;;;9.43;4.77;;;;;;;;;;6309088;28;20471;-77
2023/05/12 00:42:42;;;;;;;10.97;5.10;;;;;;;;;;6305325;28;20320;-77
2023/05/12 00:45:43;;;;;;;12.18;4.28;;;;;;;;;;6305095;28;20277;-77
2023/05/12 00:48:44;;;;;;;11.02;4.82;;;;;;;;;;6303787;28;20127;-77
2023/05/12 00:51:44;;;;;;;7.40;4.33;;;;;;;;;;6308719;28;20395;-77
2023/05/12 00:54:45;;;;;;;14.20;5.97;;;;;;;;;;6300275;28;20031;-77
2023/05/12 00:57:45;;;;;;;8.60;4.28;;;;;;;;;;6309051;28;20333;-77
2023/05/12 01:00:46;;;;;;;9.10;4.70;;;;;;;;;;6306287;28;20475;-76
2023/05/12 01:03:46;;;;;;;7.43;4.10;;;;;;;;;;6315364;28;20032;-77
2023/05/12 01:06:52;;;;;;;12.53;4.60;;;;;;;;;;6311796;28;20020;-77
2023/05/12 01:09:54;;;;;;;11.95;4.68;;;;;;;;;;6310929;28;20364;-77
2023/05/12 01:12:54;;;;;;;10.50;5.90;;;;;;;;;;6298254;28;20199;-77
2023/05/12 01:15:55;;;;;;;6.90;4.20;;;;;;;;;;6314768;28;20051;-77
2023/05/12 01:18:55;;;;;;;8.63;3.58;;;;;;;;;;6299862;28;20756;-77
2023/05/12 01:21:55;;;;;;;8.73;4.00;;;;;;;;;;6279605;28;20020;-77
2023/05/12 01:24:57;;;;;;;10.65;4.72;;;;;;;;;;6304187;28;20490;-77
2023/05/12 01:27:58;;;;;;;9.37;4.20;;;;;;;;;;6275728;28;20019;-77
2023/05/12 01:31:00;;;;;;;10.85;6.20;;;;;;;;;;6288567;28;20122;-77
2023/05/12 01:34:01;;;;;;;12.00;4.57;;;;;;;;;;6304971;28;20386;-77
2023/05/12 01:37:01;;;;;;;12.55;4.93;;;;;;;;;;6308091;28;20024;-77
2023/05/12 01:40:02;;;;;;;10.50;4.83;;;;;;;;;;6299739;28;20498;-77
2023/05/12 01:43:02;;;;;;;10.88;4.78;;;;;;;;;;6307076;28;20482;-77
2023/05/12 01:46:02;;;;;;;7.70;4.05;;;;;;;;;;6317676;28;20019;-78
2023/05/12 01:49:03;;;;;;;8.37;4.30;;;;;;;;;;6304318;28;20471;-78
2023/05/12 01:52:03;;;;;;;10.30;4.37;;;;;;;;;;6306621;28;20017;-78
2023/05/12 01:55:05;;;;;;;12.20;4.70;;;;;;;;;;6302305;28;20717;-78
2023/05/12 01:58:06;;;;;;;15.20;5.22;;;;;;;;;;6314005;28;20012;-78
2023/05/12 02:01:06;;;;;;;11.23;4.53;;;;;;;;;;6298104;28;20378;-78
2023/05/12 02:04:07;;;;;;;13.57;3.80;;;;;;;;;;6293010;28;20259;-78
2023/05/12 02:07:07;;;;;;;8.63;4.28;;;;;;;;;;6302790;28;20054;-78
2023/05/12 02:10:08;;;;;;;8.70;5.10;;;;;;;;;;6313604;28;20016;-79
2023/05/12 02:13:08;;;;;;;9.43;4.25;;;;;;;;;;6307273;28;20027;-78
2023/05/12 02:16:09;;;;;;;15.27;4.72;;;;;;;;;;6311635;28;20067;-78
2023/05/12 02:19:10;;;;;;;11.77;5.10;;;;;;;;;;6304807;28;20814;-79
2023/05/12 02:22:10;;;;;;;9.57;4.57;;;;;;;;;;6292845;28;20095;-79
2023/05/12 02:25:11;;;;;;;13.70;5.07;;;;;;;;;;6292767;28;20030;-79
2023/05/12 02:28:11;;;;;;;8.67;4.83;;;;;;;;;;6298533;28;20017;-78
2023/05/12 02:31:11;;;;;;;10.70;5.18;;;;;;;;;;6308088;28;20016;-78
2023/05/12 02:34:11;;;;;;;11.27;4.80;;;;;;;;;;6312327;28;20021;-78
2023/05/12 02:37:11;;;;;;;8.57;4.35;;;;;;;;;;6311132;28;20020;-78
2023/05/12 02:40:12;;;;;;;8.40;5.50;;;;;;;;;;6292502;28;20266;-78
2023/05/12 02:43:12;;;;;;;9.93;4.82;;;;;;;;;;6301376;28;20269;-78
2023/05/12 02:46:12;;;;;;;9.30;4.83;;;;;;;;;;6314681;28;20020;-78
2023/05/12 02:49:12;;;;;;;6.43;3.90;;;;;;;;;;6315815;28;20526;-78
2023/05/12 02:52:12;;;;;;;7.85;4.53;;;;;;;;;;6319272;28;20101;-79
2023/05/12 02:55:13;;;;;;;11.47;4.73;;;;;;;;;;6311518;28;20161;-78
2023/05/12 02:58:13;;;;;;;9.35;4.90;;;;;;;;;;6311152;28;20012;-79
2023/05/12 03:01:13;;;;;;;15.02;6.60;;;;;;;;;;6297564;28;20322;-78
2023/05/12 03:04:13;;;;;;;12.93;5.70;;;;;;;;;;6313822;28;20516;-78
2023/05/12 03:07:13;;;;;;;8.10;4.50;;;;;;;;;;6304534;28;20028;-78
2023/05/12 03:10:15;;;;;;;7.78;3.40;;;;;;;;;;6319763;28;20060;-78
2023/05/12 03:13:15;;;;;;;10.73;4.70;;;;;;;;;;6302583;28;20012;-78
2023/05/12 03:16:16;;;;;;;12.98;4.72;;;;;;;;;;6284951;28;20108;-76
2023/05/12 03:19:16;;;;;;;9.25;5.07;;;;;;;;;;6316649;28;20024;-76
2023/05/12 03:22:16;;;;;;;10.02;5.40;;;;;;;;;;6315107;28;20024;-78
2023/05/12 03:25:17;;;;;;;14.77;5.33;;;;;;;;;;6306216;28;20020;-78
2023/05/12 03:28:17;;;;;;;9.93;5.47;;;;;;;;;;6310192;28;20769;-78
2023/05/12 03:31:18;;;;;;;12.10;5.43;;;;;;;;;;6306989;28;20020;-78
2023/05/12 03:34:18;;;;;;;10.38;5.22;;;;;;;;;;6301706;28;20040;-78
2023/05/12 03:37:18;;;;;;;8.97;4.47;;;;;;;;;;6308561;28;20020;-78
2023/05/12 03:40:19;;;;;;;10.45;4.40;;;;;;;;;;6301040;28;20012;-78
2023/05/12 03:43:20;;;;;;;10.37;5.20;;;;;;;;;;6298111;28;20021;-78
2023/05/12 03:46:20;;;;;;;9.02;4.80;;;;;;;;;;6315065;28;20340;-78
2023/05/12 03:49:20;;;;;;;10.73;4.73;;;;;;;;;;6309396;28;20059;-78
2023/05/12 03:52:20;;;;;;;12.57;4.50;;;;;;;;;;6289187;28;20282;-78
2023/05/12 03:55:20;;;;;;;12.77;4.82;;;;;;;;;;6303650;28;20489;-76
2023/05/12 03:58:21;;;;;;;11.68;5.60;;;;;;;;;;6302770;28;20341;-76
2023/05/12 04:01:22;;;;;;;13.27;4.55;;;;;;;;;;6305048;28;20023;-77
2023/05/12 04:04:22;;;;;;;9.67;4.80;;;;;;;;;;6282213;28;20024;-76
2023/05/12 04:07:22;;;;;;;10.20;5.13;;;;;;;;;;6310771;28;20016;-76
2023/05/12 04:10:22;;;;;;;11.87;5.37;;;;;;;;;;6299814;28;20075;-77
2023/05/12 04:13:23;;;;;;;8.03;4.17;;;;;;;;;;6311503;28;20258;-76
2023/05/12 04:16:23;;;;;;;9.10;5.00;;;;;;;;;;6310280;28;20355;-77
2023/05/12 04:19:23;;;;;;;9.60;4.30;;;;;;;;;;6317932;28;20386;-77
2023/05/12 04:22:24;;;;;;;7.60;4.23;;;;;;;;;;6306933;28;20253;-76
2023/05/12 04:25:25;;;;;;;8.30;4.93;;;;;;;;;;6308512;28;20266;-76
2023/05/12 04:28:25;;;;;;;12.88;5.18;;;;;;;;;;6303256;28;20536;-77
2023/05/12 04:31:25;;;;;;;13.07;5.27;;;;;;;;;;6316068;28;20035;-76
2023/05/12 04:34:26;;;;;;;14.70;4.72;;;;;;;;;;6300884;28;20278;-77
2023/05/12 04:37:26;;;;;;;12.97;4.80;;;;;;;;;;6302635;28;20258;-76
2023/05/12 04:40:26;;;;;;;11.07;4.03;;;;;;;;;;6308894;28;20254;-76
2023/05/12 04:43:27;;;;;;;10.27;4.80;;;;;;;;;;6311563;28;20544;-76
2023/05/12 04:46:27;;;;;;;7.60;4.17;;;;;;;;;;6298469;28;20551;-76
2023/05/12 04:49:27;;;;;;;10.77;4.55;;;;;;;;;;6306086;28;20040;-76
2023/05/12 04:52:27;;;;;;;9.73;4.70;;;;;;;;;;6308408;28;20025;-76
2023/05/12 04:55:27;;;;;;;11.93;4.85;;;;;;;;;;6302583;28;20089;-76
2023/05/12 04:58:28;;;;;;;11.23;4.73;;;;;;;;;;6306884;28;20020;-76
2023/05/12 05:01:28;;;;;;;8.67;4.43;;;;;;;;;;6305094;28;20058;-76
2023/05/12 05:04:28;;;;;;;9.57;4.33;;;;;;;;;;6311142;28;20509;-76
2023/05/12 05:07:28;;;;;;;10.73;4.63;;;;;;;;;;6300907;28;20390;-76
2023/05/12 05:10:29;;;;;;;8.63;4.00;;;;;;;;;;6303865;28;20023;-76
2023/05/12 05:13:29;;;;;;;9.07;5.20;;;;;;;;;;6314096;28;20389;-76
2023/05/12 05:16:29;;;;;;;9.60;4.33;;;;;;;;;;6297119;28;20378;-76
2023/05/12 05:19:29;;;;;;;8.70;4.07;;;;;;;;;;6308007;28;20095;-76
2023/05/12 05:22:29;;;;;;;6.43;3.50;;;;;;;;;;6311644;28;20020;-76
2023/05/12 05:25:30;;;;;;;7.83;4.00;;;;;;;;;;6310952;28;20024;-75
2023/05/12 05:28:30;;;;;;;6.10;3.20;;;;;;;;;;6286711;28;20032;-76
2023/05/12 05:31:30;;;;;;;10.98;3.83;;;;;;;;;;6294634;28;20055;-76
2023/05/12 05:34:30;;;;;;;7.93;3.80;;;;;;;;;;6302989;28;20062;-76
2023/05/12 05:37:30;;;;;;;11.87;4.63;;;;;;;;;;6301773;28;20016;-75
2023/05/12 05:40:31;;;;;;;7.00;3.87;;;;;;;;;;6285277;28;20027;-75
2023/05/12 05:43:31;;;;;;;8.77;3.70;;;;;;;;;;6304741;28;20024;-75
2023/05/12 05:46:31;;;;;;;10.03;4.13;;;;;;;;;;6300195;28;20435;-75
2023/05/12 05:49:31;;;;;;;9.93;4.00;;;;;;;;;;6310215;28;20475;-75
2023/05/12 05:52:32;;;;;;;7.57;3.93;;;;;;;;;;6306610;28;20030;-75
2023/05/12 05:55:32;;;;;;;8.03;3.50;;;;;;;;;;6314013;28;20039;-75
2023/05/12 05:58:32;;;;;;;9.57;3.60;;;;;;;;;;6293734;28;20027;-75
2023/05/12 06:01:32;;;;;;;8.97;3.77;;;;;;;;;;6308839;28;20812;-76
2023/05/12 06:04:32;;;;;;;8.87;4.17;;;;;;;;;;6311104;28;20028;-75
2023/05/12 06:07:33;;;;;;;9.20;4.27;;;;;;;;;;6310010;28;20020;-76
2023/05/12 06:10:33;;;;;;;7.70;3.60;;;;;;;;;;6302708;28;20031;-76
2023/05/12 06:13:35;;;;;;;5.90;3.58;;;;;;;;;;6300082;28;20031;-75
2023/05/12 06:16:35;;;;;;;6.95;3.40;;;;;;;;;;6303210;28;20024;-76
2023/05/12 06:19:35;;;;;;;9.50;4.00;;;;;;;;;;6293186;28;20008;-76
2023/05/12 06:22:35;;;;;;;10.30;3.57;;;;;;;;;;6312558;28;20015;-76
2023/05/12 06:25:36;;;;;;;7.33;3.50;;;;;;;;;;6297168;28;20016;-76
2023/05/12 06:28:36;;;;;;;7.13;3.70;;;;;;;;;;6310141;28;20019;-76
2023/05/12 06:31:37;;;;;;;6.93;3.43;;;;;;;;;;6304327;28;20309;-77
2023/05/12 06:34:37;;;;;;;7.93;3.03;;;;;;;;;;6307687;28;20081;-76
2023/05/12 06:37:37;;;;;;;7.77;3.23;;;;;;;;;;6313073;28;20032;-76
2023/05/12 06:40:37;;;;;;;5.57;2.73;;;;;;;;;;6309606;28;20433;-76
2023/05/12 06:43:37;;;;;;;6.18;2.75;;;;;;;;;;6305808;28;20029;-76
2023/05/12 06:46:41;;;;;;;9.60;3.53;;;;;;;;;;6306265;28;20027;-76
2023/05/12 06:49:41;;;;;;;5.93;3.55;;;;;;;;;;6309233;28;20040;-76
2023/05/12 06:52:42;;;;;;;6.23;3.17;;;;;;;;;;6297906;28;20039;-76
2023/05/12 06:55:43;;;;;;;6.40;2.97;;;;;;;;;;6303304;28;20387;-76
2023/05/12 06:58:43;;;;;;;6.10;3.15;;;;;;;;;;6292484;28;20040;-76
2023/05/12 07:01:43;;;;;;;9.60;3.20;;;;;;;;;;6302187;28;20106;-77
2023/05/12 07:04:43;;;;;;;6.53;3.10;;;;;;;;;;6302213;28;20029;-76
2023/05/12 07:07:43;;;;;;;8.68;3.30;;;;;;;;;;6303178;28;20047;-76
2023/05/12 07:10:44;;;;;;;6.60;3.63;;;;;;;;;;6302836;28;20043;-76
2023/05/12 07:13:47;;;;;;;9.87;2.97;;;;;;;;;;6300841;28;20382;-77
2023/05/12 07:16:48;;;;;;;7.78;2.90;;;;;;;;;;6308156;28;20546;-77
2023/05/12 07:19:48;;;;;;;5.22;2.60;;;;;;;;;;6280473;28;20069;-77
2023/05/12 07:22:50;;;;;;;6.40;2.90;;;;;;;;;;6300619;28;20016;-77
2023/05/12 07:25:51;;;;;;;8.23;2.95;;;;;;;;;;6316644;28;20493;-77
2023/05/12 07:28:51;;;;;;;8.35;2.88;;;;;;;;;;6316551;28;20024;-77
2023/05/12 07:31:51;;;;;;;10.45;3.10;;;;;;;;;;6313244;28;20107;-78
2023/05/12 07:34:52;;;;;;;6.60;2.80;;;;;;;;;;6301234;28;20033;-78
2023/05/12 07:37:52;;;;;;;6.63;3.00;;;;;;;;;;6309330;28;20489;-77
2023/05/12 07:40:52;;;;;;;8.40;3.30;;;;;;;;;;6307257;28;20050;-77
2023/05/12 07:43:52;;;;;;;9.57;3.23;;;;;;;;;;6304521;28;20020;-77
2023/05/12 07:46:53;;;;;;;4.83;2.50;;;;;;;;;;6284256;28;20008;-77
2023/05/12 07:49:53;;;;;;;8.98;2.60;;;;;;;;;;6319501;28;20508;-77
2023/05/12 07:52:53;;;;;;;9.90;3.07;;;;;;;;;;6302130;28;20124;-77
2023/05/12 07:55:53;;;;;;;5.60;2.50;;;;;;;;;;6308705;28;20032;-77
2023/05/12 07:58:54;;;;;;;6.93;2.60;;;;;;;;;;6302045;28;20025;-77
2023/05/12 08:01:54;;;;;;;6.37;2.67;;;;;;;;;;6308254;28;20024;-77
2023/05/12 08:04:54;;;;;;;8.50;3.00;;;;;;;;;;6298526;28;20032;-77
2023/05/12 08:07:54;;;;;;;5.97;3.57;;;;;;;;;;6289542;28;20033;-77
2023/05/12 08:10:55;;;;;;;6.13;3.30;;;;;;;;;;6302353;28;20035;-77
2023/05/12 08:13:55;;;;;;;9.03;2.90;;;;;;;;;;6303312;28;20031;-77
2023/05/12 08:16:55;;;;;;;4.20;2.57;;;;;;;;;;6289279;28;20427;-77
2023/05/12 08:19:55;;;;;;;7.10;2.60;;;;;;;;;;6300521;28;20023;-77
2023/05/12 08:22:55;;;;;;;10.27;2.58;;;;;;;;;;6303055;28;20067;-78
2023/05/12 08:25:55;;;;;;;5.13;2.42;;;;;;;;;;6309613;28;20020;-78
2023/05/12 08:28:56;;;;;;;5.38;2.42;;;;;;;;;;6298391;28;20029;-77
2023/05/12 08:31:56;;;;;;;7.60;3.07;;;;;;;;;;6302486;28;20021;-77
2023/05/12 08:34:57;;;;;;;6.88;2.33;;;;;;;;;;6307650;28;20028;-77
2023/05/12 08:37:58;;;;;;;4.82;2.60;;;;;;;;;;6289600;28;20028;-77
2023/05/12 08:41:01;;;;;;;10.35;2.95;;;;;;;;;;6308074;28;20489;-77
2023/05/12 08:44:02;;;;;;;7.72;2.72;;;;;;;;;;6305533;28;20055;-77
2023/05/12 08:47:03;;;;;;;5.30;2.37;;;;;;;;;;6300243;28;20052;-77
2023/05/12 08:50:03;;;;;;;6.05;2.80;;;;;;;;;;6318167;28;20036;-77
2023/05/12 08:53:06;;;;;;;7.78;3.17;;;;;;;;;;6300202;28;20025;-77
2023/05/12 08:56:07;;;;;;;5.20;2.92;;;;;;;;;;6306686;28;20440;-77
2023/05/12 08:59:08;;;;;;;4.68;2.80;;;;;;;;;;6297173;28;20294;-77
2023/05/12 09:02:09;;;;;;;7.32;3.00;;;;;;;;;;6304146;28;20052;-77
2023/05/12 09:05:09;;;;;;;6.43;3.08;;;;;;;;;;6301463;28;20020;-77
2023/05/12 09:08:09;;;;;;;7.80;2.90;;;;;;;;;;6302535;28;20031;-77
2023/05/12 09:11:11;;;;;;;5.53;2.57;;;;;;;;;;6312423;28;20028;-77
2023/05/12 09:14:14;;;;;;;5.85;2.97;;;;;;;;;;6306938;28;20016;-77
2023/05/12 09:17:14;;;;;;;5.38;2.67;;;;;;;;;;6290421;28;20024;-78
2023/05/12 09:20:15;;;;;;;6.27;2.83;;;;;;;;;;6308901;28;20062;-77
2023/05/12 09:23:16;;;;;;;4.97;3.23;;;;;;;;;;6302424;28;20462;-77
2023/05/12 09:26:16;;;;;;;5.57;2.53;;;;;;;;;;6310887;28;20024;-77
2023/05/12 09:29:16;;;;;;;8.15;3.70;;;;;;;;;;6302690;28;20024;-77
2023/05/12 09:32:16;;;;;;;3.80;2.20;;;;;;;;;;6307045;28;20463;-77
2023/05/12 09:35:17;;;;;;;5.93;2.60;;;;;;;;;;6307778;28;20031;-77
2023/05/12 09:38:17;;;;;;;6.27;2.90;;;;;;;;;;6290989;28;20730;-77
2023/05/12 09:41:23;;;;;;;4.27;2.40;;;;;;;;;;6294833;28;20081;-77
2023/05/12 09:44:24;;;;;;;3.35;2.35;;;;;;;;;;6280579;28;20017;-77
2023/05/12 09:47:30;;;;;;;7.80;2.75;;;;;;;;;;6307094;28;20022;-77
2023/05/12 09:50:30;;;;;;;9.77;4.60;;;;;;;;;;6331748;28;20049;-77
2023/05/12 09:53:32;;;;;;;11.13;3.03;;;;;;;;;;6327055;28;20469;-77
2023/05/12 09:56:34;;;;;;;4.85;2.47;;;;;;;;;;6326565;28;20404;-77
2023/05/12 09:59:35;;;;;;;6.88;2.70;;;;;;;;;;6333526;28;20024;-78
2023/05/12 10:02:37;;;;;;;8.07;3.65;;;;;;;;;;6338772;27;20328;-77
2023/05/12 10:05:42;;;;;;;6.75;2.45;;;;;;;;;;6328644;28;20603;-78
2023/05/12 10:08:45;;;;;;;8.55;3.17;;;;;;;;;;6328868;28;20023;-77
2023/05/12 10:11:45;;;;;;;6.90;3.38;;;;;;;;;;6335020;28;20073;-77
2023/05/12 10:14:46;;;;;;;6.33;2.10;;;;;;;;;;6334095;28;20024;-77
2023/05/12 10:17:47;;;;;;;8.30;2.73;;;;;;;;;;6312925;28;20027;-77
2023/05/12 10:20:50;;;;;;;9.52;3.10;;;;;;;;;;6327925;28;20505;-77
2023/05/12 10:23:51;;;;;;;3.95;2.30;;;;;;;;;;6332715;28;20027;-77
2023/05/12 10:26:51;;;;;;;4.38;2.33;;;;;;;;;;6322344;28;20032;-77
2023/05/12 10:29:53;;;;;;;8.25;3.03;;;;;;;;;;6319931;28;20169;-77
2023/05/12 10:32:53;;;;;;;5.80;2.05;;;;;;;;;;6330702;28;20035;-77
2023/05/12 10:35:53;;;;;;;12.80;2.90;;;;;;;;;;6321961;28;20449;-77
2023/05/12 10:38:54;;;;;;;6.77;2.93;;;;;;;;;;6329111;28;20039;-77
2023/05/12 10:42:07;;;;;;;10.45;2.55;;;;;;;;;;6336647;28;20528;-77
2023/05/12 10:45:16;;;;;;;7.72;2.75;;;;;;;;;;6325778;28;20028;-77
2023/05/12 10:48:16;;;;;;;5.47;2.58;;;;;;;;;;6330079;28;20023;-77
2023/05/12 10:51:21;;;;;;;5.85;2.40;;;;;;;;;;6305874;28;20803;-77
2023/05/12 10:54:23;;;;;;;8.93;3.22;;;;;;;;;;6310744;28;20031;-77
2023/05/12 10:57:24;;;;;;;16.08;2.92;;;;;;;;;;6312396;28;20012;-77
2023/05/12 11:00:25;;;;;;;8.70;2.40;;;;;;;;;;6308196;28;20041;-77
2023/05/12 11:03:25;;;;;;;7.18;2.40;;;;;;;;;;6303577;28;20017;-77
2023/05/12 11:06:28;;;;;;;7.13;2.60;;;;;;;;;;6304925;28;20028;-77
2023/05/12 11:09:28;;;;;;;8.68;2.75;;;;;;;;;;6301910;28;20028;-77
2023/05/12 11:12:31;;;;;;;7.97;2.83;;;;;;;;;;6310377;28;20103;-77
2023/05/12 11:15:32;;;;;;;7.50;2.90;;;;;;;;;;6297203;28;20020;-77
2023/05/12 11:18:32;;;;;;;9.63;2.85;;;;;;;;;;6305597;28;20012;-77
2023/05/12 11:21:32;;;;;;;5.38;2.75;;;;;;;;;;6314398;28;20008;-77
2023/05/12 11:24:33;;;;;;;4.77;2.27;;;;;;;;;;6316873;28;20938;-77
2023/05/12 11:27:33;;;;;;;8.30;2.70;;;;;;;;;;6304686;28;20026;-77
2023/05/12 11:30:33;;;;;;;5.03;2.30;;;;;;;;;;6317642;28;20016;-78
2023/05/12 11:33:33;;;;;;;6.45;2.42;;;;;;;;;;6312640;28;20526;-78
2023/05/12 11:36:37;;;;;;;6.80;2.73;;;;;;;;;;6316642;28;20021;-77
2023/05/12 11:39:37;;;;;;;16.35;3.00;;;;;;;;;;6286775;28;20012;-77
2023/05/12 11:42:40;;;;;;;8.90;2.93;;;;;;;;;;6304452;28;20020;-77
2023/05/12 11:45:40;;;;;;;7.90;2.13;;;;;;;;;;6305467;28;20100;-77
2023/05/12 11:48:41;;;;;;;7.13;2.25;;;;;;;;;;6312122;28;20039;-77
2023/05/12 11:51:41;;;;;;;4.07;2.20;;;;;;;;;;6340271;28;20094;-77
2023/05/12 11:54:49;;;;;;;5.47;2.00;;;;;;;;;;6334103;28;20043;-77
2023/05/12 11:57:57;;;;;;;7.20;2.53;;;;;;;;;;6329583;28;20041;-77
2023/05/12 12:01:08;;;;;;;6.43;2.40;;;;;;;;;;6328685;28;20067;-77
2023/05/12 12:04:08;;;;;;;2.67;2.42;;;;;;;;;;6326802;28;20012;-77
2023/05/12 12:07:08;;;;;;;9.33;2.67;;;;;;;;;;6311621;28;20031;-77
2023/05/12 12:10:15;;;;;;;3.77;2.23;;;;;;;;;;6331228;28;20089;-76
2023/05/12 12:13:20;;;;;;;8.63;3.08;;;;;;;;;;6334635;27;20419;-76
2023/05/12 12:16:20;;;;;;;3.20;2.35;;;;;;;;;;6330295;28;20019;-76
2023/05/12 12:19:20;;;;;;;2.72;2.30;;;;;;;;;;6323914;28;20019;-77
2023/05/12 12:22:20;;;;;;;8.27;2.70;;;;;;;;;;6338682;28;20131;-77
2023/05/12 12:25:21;;;;;;;6.50;2.63;;;;;;;;;;6340640;27;20051;-76
2023/05/12 12:28:21;;;;;;;2.20;1.90;;;;;;;;;;6317446;28;20023;-77
2023/05/12 12:31:21;;;;;;;4.80;1.97;;;;;;;;;;6324309;28;20024;-76
2023/05/12 12:34:21;;;;;;;7.90;2.07;;;;;;;;;;6334447;28;20066;-77
2023/05/12 12:37:22;;;;;;;5.03;2.30;;;;;;;;;;6333552;28;20058;-77
2023/05/12 12:40:22;;;;;;;5.20;2.83;;;;;;;;;;6324406;28;20040;-77
2023/05/12 12:43:22;;;;;;;4.67;1.93;;;;;;;;;;6324584;28;20634;-77
2023/05/12 12:46:22;;;;;;;4.20;1.60;;;;;;;;;;6331636;28;20015;-77
2023/05/12 12:49:22;;;;;;;10.70;2.57;;;;;;;;;;6329606;28;20130;-77
2023/05/12 12:52:23;;;;;;;3.30;1.53;;;;;;;;;;6332440;28;20012;-77
2023/05/12 12:55:24;;;;;;;5.10;1.93;;;;;;;;;;6336352;28;20055;-77
2023/05/12 12:58:24;;;;;;;8.88;2.03;;;;;;;;;;6320995;28;20020;-77
2023/05/12 13:01:25;;;;;;;8.32;2.17;;;;;;;;;;6329710;28;20043;-77
2023/05/12 13:04:25;;;;;;;7.77;2.40;;;;;;;;;;6324767;28;20015;-77
2023/05/12 13:07:25;;;;;;;7.43;2.30;;;;;;;;;;6337250;28;20012;-77
2023/05/12 13:10:26;;;;;;;3.10;2.00;;;;;;;;;;6327535;28;20020;-77
2023/05/12 13:13:26;;;;;;;8.77;2.03;;;;;;;;;;6323402;28;20541;-77
2023/05/12 13:16:26;;;;;;;8.53;4.03;;;;;;;;;;6332280;28;20016;-78
2023/05/12 13:19:26;;;;;;;7.63;2.22;;;;;;;;;;6318384;28;20024;-78
2023/05/12 13:22:27;;;;;;;7.13;2.13;;;;;;;;;;6342301;28;20549;-77
2023/05/12 13:25:27;;;;;;;7.05;2.20;;;;;;;;;;6319995;27;20024;-77
2023/05/12 13:28:28;;;;;;;2.50;1.83;;;;;;;;;;6324213;28;20534;-78
2023/05/12 13:31:28;;;;;;;6.97;2.73;;;;;;;;;;6332180;28;20020;-77
2023/05/12 13:34:28;;;;;;;8.07;2.40;;;;;;;;;;6322192;28;20024;-77
2023/05/12 13:37:29;;;;;;;6.13;2.20;;;;;;;;;;6334196;28;20108;-77
2023/05/12 13:40:30;;;;;;;5.00;2.10;;;;;;;;;;6335489;28;20019;-78
2023/05/12 13:43:30;;;;;;;;;;;;;;;;;;6307368;28;20051;-77
2023/05/12 13:46:30;;;;;;;8.80;2.60;;;;;;;;;;6332001;28;19908;-78
2023/05/12 13:49:30;;;;;;;5.38;2.30;;;;;;;;;;6334774;28;20160;-79
2023/05/12 13:52:31;;;;;;;3.35;1.90;;;;;;;;;;6339521;28;20034;-77
2023/05/12 13:55:33;;;;;;;6.78;2.25;;;;;;;;;;6337529;28;20110;-77
2023/05/12 13:58:35;;;;;;;4.22;2.10;;;;;;;;;;6329297;28;20023;-77
2023/05/12 14:01:35;;;;;;;3.10;2.05;;;;;;;;;;6325289;28;20132;-77
2023/05/12 14:04:35;;;;;;;5.03;2.03;;;;;;;;;;6323417;28;20016;-77
2023/05/12 14:07:36;;;;;;;6.73;2.53;;;;;;;;;;6320653;28;20125;-77
2023/05/12 14:10:36;;;;;;;5.97;3.00;;;;;;;;;;6331197;28;20065;-77
2023/05/12 14:13:36;;;;;;;6.47;2.30;;;;;;;;;;6330871;28;20072;-77
2023/05/12 14:16:36;;;;;;;8.67;2.53;;;;;;;;;;6325095;28;20016;-77
2023/05/12 14:19:36;;;;;;;7.03;2.23;;;;;;;;;;6330343;28;20020;-77
2023/05/12 14:22:37;;;;;;;5.07;2.37;;;;;;;;;;6318117;28;20016;-77
2023/05/12 14:25:37;;;;;;;6.10;2.40;;;;;;;;;;6323874;28;20801;-77
2023/05/12 14:28:37;;;;;;;5.77;2.10;;;;;;;;;;6323451;28;20031;-77
2023/05/12 14:31:38;;;;;;;3.80;2.00;;;;;;;;;;6336318;28;20314;-77
2023/05/12 14:34:38;;;;;;;8.73;2.07;;;;;;;;;;6334994;28;20465;-77
2023/05/12 14:37:38;;;;;;;4.85;2.38;;;;;;;;;;6331674;28;20028;-77
2023/05/12 14:40:40;;;;;;;9.00;2.07;;;;;;;;;;6331263;28;20020;-77
2023/05/12 14:43:40;;;;;;;3.17;2.17;;;;;;;;;;6321296;28;20016;-77
2023/05/12 14:46:40;;;;;;;6.50;2.20;;;;;;;;;;6321640;28;20553;-77
2023/05/12 14:49:40;;;;;;;7.50;2.10;;;;;;;;;;6330948;28;20063;-77
2023/05/12 14:52:41;;;;;;;4.53;2.03;;;;;;;;;;6326584;28;20099;-76
2023/05/12 14:55:41;;;;;;;7.87;2.63;;;;;;;;;;6325449;28;20020;-77
2023/05/12 14:58:41;;;;;;;8.00;2.25;;;;;;;;;;6321752;28;20374;-77
2023/05/12 15:01:41;;;;;;;8.47;3.30;;;;;;;;;;6339449;28;20077;-77
2023/05/12 15:04:42;;;;;;;13.60;3.70;;;;;;;;;;6327988;28;20363;-78
2023/05/12 15:07:42;;;;;;;4.95;2.08;;;;;;;;;;6311554;27;20050;-77
2023/05/12 15:10:43;;;;;;;4.30;2.30;;;;;;;;;;6332354;28;20024;-77
2023/05/12 15:13:43;;;;;;;3.30;2.08;;;;;;;;;;6331536;28;20023;-77
2023/05/12 15:16:43;;;;;;;5.23;2.03;;;;;;;;;;6336004;28;20038;-77
2023/05/12 15:19:44;;;;;;;6.67;2.77;;;;;;;;;;6307273;28;20031;-77
2023/05/12 15:22:45;;;;;;;4.70;1.90;;;;;;;;;;6306954;28;20472;-77
2023/05/12 15:25:46;;;;;;;8.95;2.28;;;;;;;;;;6335695;28;20016;-77
2023/05/12 15:28:46;;;;;;;6.07;2.57;;;;;;;;;;6326958;27;20410;-77
2023/05/12 15:31:48;;;;;;;4.33;1.70;;;;;;;;;;6329099;28;20107;-77
2023/05/12 15:34:48;;;;;;;4.28;2.03;;;;;;;;;;6324254;28;20031;-77
2023/05/12 15:37:48;;;;;;;4.97;2.20;;;;;;;;;;6322252;28;20094;-77
2023/05/12 15:40:48;;;;;;;5.03;1.77;;;;;;;;;;6311725;28;20092;-77
2023/05/12 15:43:48;;;;;;;6.37;2.33;;;;;;;;;;6326831;28;20024;-77
2023/05/12 15:46:49;;;;;;;6.50;2.13;;;;;;;;;;6338050;27;20523;-77
2023/05/12 15:49:50;;;;;;;7.97;2.67;;;;;;;;;;6339782;27;20047;-77
2023/05/12 15:52:50;;;;;;;5.28;2.53;;;;;;;;;;6346921;27;20024;-77
2023/05/12 15:55:52;;;;;;;;;;;;;;;;;;6342959;28;20488;-77
2023/05/12 15:58:52;;;;;;;4.73;2.10;;;;;;;;;;6332355;28;19908;-77
2023/05/12 16:01:54;;;;;;;5.03;2.10;;;;;;;;;;6326521;28;20022;-77
2023/05/12 16:04:54;;;;;;;8.27;2.83;;;;;;;;;;6328917;28;20026;-77
2023/05/12 16:07:54;;;;;;;7.47;2.20;;;;;;;;;;6310551;27;20486;-77
2023/05/12 16:10:54;;;;;;;6.23;2.20;;;;;;;;;;6332432;28;20047;-78
2023/05/12 16:13:58;;;;;;;6.60;2.47;;;;;;;;;;6331556;28;20026;-78
2023/05/12 16:16:58;;;;;;;9.70;3.17;;;;;;;;;;6330607;28;20027;-78
2023/05/12 16:20:00;;;;;;;7.63;3.37;;;;;;;;;;6308146;28;20032;-78
2023/05/12 16:23:01;;;;;;;5.13;2.42;;;;;;;;;;6328367;28;20022;-78
2023/05/12 16:26:01;;;;;;;5.33;2.17;;;;;;;;;;6330700;28;20016;-78
2023/05/12 16:29:02;;;;;;;7.43;2.43;;;;;;;;;;6322538;28;20024;-78
2023/05/12 16:32:02;;;;;;;8.83;2.20;;;;;;;;;;6328260;28;20492;-78
2023/05/12 16:35:02;;;;;;;5.63;2.47;;;;;;;;;;6332236;28;20477;-78
2023/05/12 16:38:02;;;;;;;9.43;3.03;;;;;;;;;;6339787;28;20034;-79
2023/05/12 16:41:03;;;;;;;5.10;2.10;;;;;;;;;;6313318;28;20016;-78
2023/05/12 16:44:03;;;;;;;4.47;3.00;;;;;;;;;;6338443;27;20019;-78
2023/05/12 16:47:04;;;;;;;4.20;2.80;;;;;;;;;;6333138;28;20363;-79
2023/05/12 16:50:05;;;;;;;6.97;2.47;;;;;;;;;;6334979;28;20681;-75
2023/05/12 16:53:05;;;;;;;5.70;2.33;;;;;;;;;;6341905;27;20393;-75
2023/05/12 16:56:06;;;;;;;8.90;2.77;;;;;;;;;;6323722;28;20068;-78
2023/05/12 16:59:07;;;;;;;6.07;2.38;;;;;;;;;;6338097;27;20087;-78
2023/05/12 17:02:08;;;;;;;8.77;2.55;;;;;;;;;;6335604;28;20124;-78
2023/05/12 17:05:08;;;;;;;5.83;3.10;;;;;;;;;;6336740;28;20028;-78
2023/05/12 17:08:09;;;;;;;5.23;2.40;;;;;;;;;;6334653;27;20031;-77
2023/05/12 17:11:09;;;;;;;6.60;2.90;;;;;;;;;;6336009;28;20714;-78
2023/05/12 17:14:09;;;;;;;7.67;2.90;;;;;;;;;;6339986;28;20027;-77
2023/05/12 17:17:09;;;;;;;6.50;3.30;;;;;;;;;;6342503;28;20024;-77
2023/05/12 17:20:10;;;;;;;4.68;2.78;;;;;;;;;;6335799;28;20020;-78
2023/05/12 17:23:11;;;;;;;4.13;2.77;;;;;;;;;;6325683;28;20095;-78
2023/05/12 17:26:11;;;;;;;3.75;2.45;;;;;;;;;;6310277;28;20019;-78
2023/05/12 17:29:11;;;;;;;6.33;2.80;;;;;;;;;;6321071;28;20027;-78
2023/05/12 17:32:12;;;;;;;8.73;2.70;;;;;;;;;;6322147;28;20020;-77
2023/05/12 17:35:12;;;;;;;4.35;2.90;;;;;;;;;;6337374;28;20382;-77
2023/05/12 17:38:12;;;;;;;6.87;2.83;;;;;;;;;;6337679;28;20020;-77
2023/05/12 17:41:15;;;;;;;10.07;3.28;;;;;;;;;;6342244;28;20124;-77
2023/05/12 17:44:15;;;;;;;8.98;3.80;;;;;;;;;;6357278;27;20085;-77
2023/05/12 17:47:15;;;;;;;15.17;3.63;;;;;;;;;;6336417;27;20067;-77
2023/05/12 17:50:16;;;;;;;10.85;3.85;;;;;;;;;;6342002;27;20097;-78
2023/05/12 17:53:16;;;;;;;6.53;3.30;;;;;;;;;;6328523;28;20106;-78
2023/05/12 17:56:16;;;;;;;8.35;3.58;;;;;;;;;;6334808;28;20100;-78
2023/05/12 17:59:17;;;;;;;10.33;3.57;;;;;;;;;;6336874;28;20015;-77